createdAt,value
2022-11-14T00:02:36.782Z,79.17
2022-11-14T00:05:43.409Z,79.30
2022-11-14T00:08:47.424Z,79.36
2022-11-14T00:11:51.644Z,78.94
2022-11-14T00:14:56.066Z,79.04
2022-11-14T00:18:00.460Z,79.29
2022-11-14T00:21:05.002Z,78.91
2022-11-14T00:24:09.336Z,79.08
2022-11-14T00:27:13.534Z,78.86
2022-11-14T00:30:17.998Z,78.85
2022-11-14T00:33:22.116Z,79.22
2022-11-14T00:36:26.501Z,79.10
2022-11-14T00:39:30.739Z,79.57
2022-11-14T00:42:35.270Z,79.42
2022-11-14T00:45:39.483Z,79.51
2022-11-14T00:48:44.382Z,79.41
2022-11-14T00:51:48.700Z,80.13
2022-11-14T00:54:52.995Z,79.65
2022-11-14T00:57:57.168Z,79.71
2022-11-14T01:01:01.499Z,80.11
2022-11-14T01:04:05.917Z,80.24
2022-11-14T01:07:10.242Z,80.65
2022-11-14T01:10:14.396Z,80.83
2022-11-14T01:13:18.968Z,81.21
2022-11-14T01:16:23.672Z,80.74
2022-11-14T01:19:27.926Z,80.95
2022-11-14T01:22:32.557Z,81.05
2022-11-14T01:25:38.442Z,81.70
2022-11-14T01:28:42.966Z,81.48
2022-11-14T01:31:47.301Z,81.05
2022-11-14T01:34:51.548Z,80.95
2022-11-14T01:37:55.786Z,80.85
2022-11-14T01:41:01.114Z,81.24
2022-11-14T01:44:13.083Z,80.83
2022-11-14T01:47:21.510Z,81.22
2022-11-14T01:50:27.588Z,81.02
2022-11-14T01:53:32.570Z,81.16
2022-11-14T01:56:42.713Z,80.75
2022-11-14T01:59:52.146Z,81.50
2022-11-14T02:02:58.213Z,81.44
2022-11-14T02:06:03.907Z,81.49
2022-11-14T02:09:08.626Z,81.78
2022-11-14T02:12:16.505Z,81.93
2022-11-14T02:15:20.430Z,81.56
2022-11-14T02:18:24.660Z,81.58
2022-11-14T02:21:29.086Z,81.51
2022-11-14T02:24:33.512Z,80.88
2022-11-14T02:27:39.518Z,81.56
2022-11-14T02:30:43.761Z,81.94
2022-11-14T02:33:47.884Z,81.97
2022-11-14T02:36:52.347Z,81.60
2022-11-14T02:39:56.705Z,81.77
2022-11-14T02:43:01.109Z,81.84
2022-11-14T02:46:06.041Z,82.09
2022-11-14T02:49:10.389Z,81.62
2022-11-14T02:52:14.760Z,82.07
2022-11-14T02:55:19.237Z,82.13
2022-11-14T02:58:23.635Z,82.40
2022-11-14T03:01:28.187Z,81.93
2022-11-14T03:04:32.234Z,82.35
2022-11-14T03:07:36.557Z,82.54
2022-11-14T03:10:40.949Z,82.46
2022-11-14T03:13:45.538Z,82.20
2022-11-14T03:16:49.763Z,82.40
2022-11-14T03:19:53.898Z,81.97
2022-11-14T03:22:58.192Z,82.45
2022-11-14T03:26:04.707Z,82.24
2022-11-14T03:29:08.995Z,82.63
2022-11-14T03:32:13.493Z,82.52
2022-11-14T03:35:17.787Z,82.54
2022-11-14T03:38:23.162Z,82.47
2022-11-14T03:41:27.213Z,82.32
2022-11-14T03:44:31.498Z,82.29
2022-11-14T03:47:35.873Z,82.07
2022-11-14T03:50:41.788Z,82.21
2022-11-14T03:53:46.043Z,82.21
2022-11-14T03:56:49.873Z,82.13
2022-11-14T03:59:54.192Z,81.96
2022-11-14T04:02:58.743Z,82.06
2022-11-14T04:06:03.243Z,81.85
2022-11-14T04:09:07.376Z,81.69
2022-11-14T04:12:15.552Z,81.83
2022-11-14T04:15:20.362Z,81.63
2022-11-14T04:18:25.563Z,81.54
2022-11-14T04:21:29.912Z,81.78
2022-11-14T04:24:34.253Z,81.93
2022-11-14T04:27:38.497Z,82.19
2022-11-14T04:30:42.775Z,81.44
2022-11-14T04:33:46.952Z,80.77
2022-11-14T04:36:51.312Z,81.35
2022-11-14T04:39:58.797Z,81.72
2022-11-14T04:43:03.322Z,80.94
2022-11-14T04:46:07.568Z,81.39
2022-11-14T04:49:11.684Z,81.46
2022-11-14T04:52:15.961Z,81.65
2022-11-14T04:55:20.363Z,81.34
2022-11-14T04:58:24.880Z,82.01
2022-11-14T05:01:29.236Z,82.06
2022-11-14T05:04:33.559Z,81.84
2022-11-14T05:07:38.488Z,82.47
2022-11-14T05:10:44.577Z,82.06
2022-11-14T05:13:50.750Z,81.92
2022-11-14T05:16:55.583Z,82.21
2022-11-14T05:19:59.803Z,82.33
2022-11-14T05:23:04.225Z,82.25
2022-11-14T05:26:14.588Z,82.20
2022-11-14T05:29:18.462Z,82.05
2022-11-14T05:32:22.720Z,81.46
2022-11-14T05:35:27.033Z,80.48
2022-11-14T05:38:31.986Z,80.72
2022-11-14T05:41:36.630Z,80.05
2022-11-14T05:44:40.921Z,79.16
2022-11-14T05:47:46.030Z,78.27
2022-11-14T05:50:55.112Z,78.03
2022-11-14T05:53:59.498Z,77.82
2022-11-14T05:57:04.520Z,78.22
2022-11-14T06:00:09.342Z,77.79
2022-11-14T06:03:15.143Z,77.70
2022-11-14T06:06:21.668Z,77.60
2022-11-14T06:09:25.556Z,77.56
2022-11-14T06:12:32.056Z,77.31
2022-11-14T06:15:36.089Z,77.37
2022-11-14T06:18:40.907Z,77.77
2022-11-14T06:21:45.233Z,77.37
2022-11-14T06:24:49.770Z,77.75
2022-11-14T06:27:54.273Z,77.83
2022-11-14T06:31:05.508Z,78.09
2022-11-14T06:34:13.099Z,78.08
2022-11-14T06:37:17.549Z,78.26
2022-11-14T06:40:21.791Z,78.69
2022-11-14T06:43:26.357Z,78.64
2022-11-14T06:46:30.478Z,79.04
2022-11-14T06:49:39.387Z,78.93
2022-11-14T06:52:45.726Z,78.89
2022-11-14T06:55:57.616Z,79.07
2022-11-14T06:59:02.150Z,78.92
2022-11-14T07:02:06.361Z,78.94
2022-11-14T07:05:10.657Z,79.04
2022-11-14T07:08:19.845Z,78.55
2022-11-14T07:11:29.452Z,78.97
2022-11-14T07:14:33.563Z,79.20
2022-11-14T07:17:37.467Z,78.74
2022-11-14T07:20:41.860Z,78.59
2022-11-14T07:23:46.129Z,78.88
2022-11-14T07:26:50.649Z,78.72
2022-11-14T07:29:54.966Z,78.88
2022-11-14T07:32:59.452Z,78.41
2022-11-14T07:36:04.162Z,78.60
2022-11-14T07:39:08.584Z,78.60
2022-11-14T07:42:12.836Z,79.08
2022-11-14T07:45:17.015Z,79.12
2022-11-14T07:48:21.929Z,78.97
2022-11-14T07:51:26.605Z,79.54
2022-11-14T07:54:31.059Z,78.84
2022-11-14T07:57:40.332Z,78.97
2022-11-14T08:00:46.293Z,79.27
2022-11-14T08:03:51.051Z,78.66
2022-11-14T08:06:55.285Z,78.45
2022-11-14T08:09:59.293Z,77.95
2022-11-14T08:13:31.025Z,78.18
2022-11-14T08:16:32.901Z,78.35
2022-11-14T08:19:37.170Z,78.27
2022-11-14T08:22:41.341Z,77.69
2022-11-14T08:25:46.204Z,78.31
2022-11-14T08:28:54.440Z,77.34
2022-11-14T08:32:00.074Z,77.67
2022-11-14T08:35:05.778Z,77.91
2022-11-14T08:38:09.876Z,77.68
2022-11-14T08:41:14.839Z,78.20
2022-11-14T08:44:19.234Z,78.11
2022-11-14T08:47:23.704Z,78.63
2022-11-14T08:50:28.181Z,78.41
2022-11-14T08:53:34.214Z,78.31
2022-11-14T08:56:39.315Z,78.50
2022-11-14T08:59:43.638Z,78.08
2022-11-14T09:02:48.046Z,78.06
2022-11-14T09:05:53.606Z,78.66
2022-11-14T09:08:58.201Z,78.30
2022-11-14T09:12:02.476Z,78.36
2022-11-14T09:15:07.966Z,78.09
2022-11-14T09:18:12.712Z,78.15
2022-11-14T09:21:17.128Z,77.93
2022-11-14T09:24:21.683Z,77.83
2022-11-14T09:27:27.113Z,77.22
2022-11-14T09:30:31.434Z,77.21
2022-11-14T09:33:36.279Z,77.32
2022-11-14T09:36:40.402Z,76.80
2022-11-14T09:39:44.895Z,76.82
2022-11-14T09:43:03.668Z,77.11
2022-11-14T09:46:32.093Z,77.36
2022-11-14T09:49:42.866Z,77.45
2022-11-14T09:52:54.146Z,77.72
2022-11-14T09:55:59.233Z,77.62
2022-11-14T09:59:03.835Z,78.14
2022-11-14T10:02:36.183Z,78.57
2022-11-14T10:06:09.418Z,78.20
2022-11-14T10:09:26.111Z,78.05
2022-11-14T10:12:50.111Z,78.26
2022-11-14T10:16:26.242Z,78.31
2022-11-14T10:19:42.966Z,78.35
2022-11-14T10:23:45.786Z,78.28
2022-11-14T10:27:11.186Z,77.52
2022-11-14T10:30:20.232Z,77.23
2022-11-14T10:33:42.139Z,78.10
2022-11-14T10:36:53.770Z,77.56
2022-11-14T10:40:21.058Z,77.41
2022-11-14T10:43:40.563Z,77.56
2022-11-14T10:46:49.934Z,77.20
2022-11-14T10:50:00.812Z,77.73
2022-11-14T10:53:18.307Z,78.14
2022-11-14T10:56:22.584Z,77.62
2022-11-14T10:59:28.054Z,77.58
2022-11-14T11:02:54.437Z,78.03
2022-11-14T11:05:58.884Z,77.86
2022-11-14T11:09:33.584Z,78.21
2022-11-14T11:12:37.756Z,77.85
2022-11-14T11:15:42.807Z,78.34
2022-11-14T11:18:50.641Z,78.25
2022-11-14T11:21:54.901Z,78.34
2022-11-14T11:24:59.362Z,78.68
2022-11-14T11:28:06.435Z,78.27
2022-11-14T11:31:11.935Z,78.15
2022-11-14T11:34:22.710Z,77.89
2022-11-14T11:37:40.348Z,77.90
2022-11-14T11:40:48.987Z,77.70
2022-11-14T11:44:00.740Z,77.56
2022-11-14T11:47:13.496Z,77.65
2022-11-14T11:50:20.804Z,77.84
2022-11-14T11:53:34.290Z,77.90
2022-11-14T11:56:40.061Z,78.42
2022-11-14T11:59:48.397Z,77.93
2022-11-14T12:02:54.174Z,78.33
2022-11-14T12:06:07.224Z,78.80
2022-11-14T12:09:22.891Z,78.60
2022-11-14T12:13:01.500Z,78.55
2022-11-14T12:16:31.397Z,78.08
2022-11-14T12:20:06.487Z,78.52
2022-11-14T12:23:46.167Z,77.81
2022-11-14T12:26:59.164Z,77.83
2022-11-14T12:30:14.940Z,77.73
2022-11-14T12:33:22.430Z,77.67
2022-11-14T12:36:30.789Z,77.74
2022-11-14T12:39:34.870Z,77.89
2022-11-14T12:42:47.309Z,78.12
2022-11-14T12:45:51.355Z,78.28
2022-11-14T12:48:55.878Z,78.43
2022-11-14T12:52:00.058Z,78.32
2022-11-14T12:55:04.273Z,78.33
2022-11-14T12:58:40.137Z,77.61
2022-11-14T13:01:54.146Z,78.48
2022-11-14T13:05:21.296Z,78.18
2022-11-14T13:08:46.844Z,78.90
2022-11-14T13:12:10.261Z,78.96
2022-11-14T13:16:06.775Z,78.86
2022-11-14T13:19:40.611Z,78.44
2022-11-14T13:22:47.437Z,78.72
2022-11-14T13:26:30.166Z,79.06
2022-11-14T13:29:40.061Z,78.95
2022-11-14T13:32:44.732Z,78.70
2022-11-14T13:35:53.048Z,79.01
2022-11-14T13:39:14.366Z,79.38
2022-11-14T13:42:35.670Z,79.70
2022-11-14T13:46:00.932Z,79.21
2022-11-14T13:49:25.531Z,79.73
2022-11-14T13:52:39.671Z,79.08
2022-11-14T13:55:59.662Z,79.56
2022-11-14T13:59:25.950Z,79.25
2022-11-14T14:02:47.511Z,79.10
2022-11-14T14:06:13.088Z,79.02
2022-11-14T14:09:26.612Z,78.81
2022-11-14T14:13:00.430Z,78.92
2022-11-14T14:16:04.943Z,79.33
2022-11-14T14:19:38.826Z,79.21
2022-11-14T14:23:17.125Z,79.17
2022-11-14T14:26:37.104Z,78.83
2022-11-14T14:30:08.216Z,79.02
2022-11-14T14:33:15.188Z,79.18
2022-11-14T14:36:27.423Z,79.46
2022-11-14T14:39:31.370Z,79.63
2022-11-14T14:42:40.747Z,79.65
2022-11-14T14:45:53.329Z,80.02
2022-11-14T14:49:01.703Z,80.07
2022-11-14T14:52:32.187Z,79.60
2022-11-14T14:55:36.840Z,80.05
2022-11-14T14:58:41.365Z,79.69
2022-11-14T15:01:46.110Z,79.66
2022-11-14T15:04:50.483Z,80.02
2022-11-14T15:08:00.835Z,79.65
2022-11-14T15:11:06.443Z,80.09
2022-11-14T15:14:17.879Z,80.21
2022-11-14T15:17:25.464Z,79.53
2022-11-14T15:20:30.199Z,79.56
2022-11-14T15:23:34.950Z,80.39
2022-11-14T15:26:40.104Z,79.88
2022-11-14T15:29:50.247Z,80.26
2022-11-14T15:32:56.347Z,80.02
2022-11-14T15:36:30.279Z,80.17
2022-11-14T15:39:34.630Z,80.04
2022-11-14T15:42:38.875Z,80.74
2022-11-14T15:45:45.251Z,80.93
2022-11-14T15:48:50.145Z,80.46
2022-11-14T15:52:01.831Z,80.24
2022-11-14T15:55:21.438Z,80.53
2022-11-14T15:58:28.575Z,80.29
2022-11-14T16:01:33.605Z,80.58
2022-11-14T16:04:44.373Z,80.42
2022-11-14T16:07:51.318Z,80.58
2022-11-14T16:10:55.707Z,80.52
2022-11-14T16:13:59.889Z,81.08
2022-11-14T16:17:05.792Z,80.46
2022-11-14T16:20:22.603Z,81.02
2022-11-14T16:23:26.870Z,80.74
2022-11-14T16:26:31.445Z,80.61
2022-11-14T16:29:37.515Z,80.29
2022-11-14T16:32:47.959Z,80.84
2022-11-14T16:35:52.401Z,80.91
2022-11-14T16:39:02.190Z,81.07
2022-11-14T16:42:07.379Z,81.33
2022-11-14T16:45:12.082Z,81.06
2022-11-14T16:48:16.984Z,81.18
2022-11-14T16:51:46.658Z,81.21
2022-11-14T16:54:46.465Z,81.85
2022-11-14T16:57:51.162Z,81.82
2022-11-14T17:00:55.656Z,81.75
2022-11-14T17:04:00.531Z,81.67
2022-11-14T17:07:04.911Z,81.76
2022-11-14T17:10:09.960Z,81.87
2022-11-14T17:13:14.708Z,82.23
2022-11-14T17:16:19.104Z,82.38
2022-11-14T17:19:23.552Z,82.15
2022-11-14T17:22:28.481Z,82.15
2022-11-14T17:25:35.507Z,82.23
2022-11-14T17:28:41.532Z,82.02
2022-11-14T17:31:47.399Z,81.80
2022-11-14T17:34:51.898Z,82.25
2022-11-14T17:38:00.361Z,81.93
2022-11-14T17:41:08.395Z,82.45
2022-11-14T17:44:12.725Z,82.43
2022-11-14T17:47:17.480Z,82.57
2022-11-14T17:50:21.650Z,82.33
2022-11-14T17:53:25.894Z,83.21
2022-11-14T17:56:30.401Z,82.58
2022-11-14T17:59:36.426Z,83.08
2022-11-14T18:02:40.721Z,82.99
2022-11-14T18:05:45.209Z,82.62
2022-11-14T18:08:49.628Z,82.93
2022-11-14T18:11:53.974Z,83.25
2022-11-14T18:14:58.473Z,83.14
2022-11-14T18:18:02.758Z,83.13
2022-11-14T18:21:07.830Z,83.19
2022-11-14T18:24:13.478Z,83.13
2022-11-14T18:27:17.934Z,82.83
2022-11-14T18:33:47.450Z,83.04
2022-11-14T18:36:51.862Z,82.64
2022-11-14T18:39:56.420Z,83.18
2022-11-14T18:43:00.346Z,83.28
2022-11-14T18:46:08.965Z,83.04
2022-11-14T18:49:13.322Z,82.86
2022-11-14T18:52:19.418Z,83.26
2022-11-14T18:55:23.911Z,82.98
2022-11-14T18:58:28.367Z,83.20
2022-11-14T19:01:35.005Z,83.71
2022-11-14T19:04:39.166Z,83.41
2022-11-14T19:07:43.423Z,83.54
2022-11-14T19:10:48.016Z,83.34
2022-11-14T19:13:52.442Z,83.47
2022-11-14T19:16:56.739Z,82.99
2022-11-14T19:20:00.886Z,82.77
2022-11-14T19:23:05.256Z,82.74
2022-11-14T19:26:09.856Z,83.09
2022-11-14T19:29:14.243Z,83.13
2022-11-14T19:32:18.664Z,82.15
2022-11-14T19:35:22.729Z,82.23
2022-11-14T19:38:27.192Z,82.13
2022-11-14T19:41:32.311Z,82.10
2022-11-14T19:44:36.624Z,82.44
2022-11-14T19:47:40.924Z,82.55
2022-11-14T19:50:45.469Z,82.56
2022-11-14T19:53:49.698Z,82.28
2022-11-14T19:56:53.959Z,82.19
2022-11-14T19:59:58.336Z,82.24
2022-11-14T20:03:03.311Z,81.80
2022-11-14T20:06:15.426Z,81.73
2022-11-14T20:09:20.259Z,81.34
2022-11-14T20:12:24.644Z,81.25
2022-11-14T20:15:29.480Z,81.13
2022-11-14T20:18:34.041Z,81.15
2022-11-14T20:21:39.028Z,81.31
2022-11-14T20:24:43.648Z,81.00
2022-11-14T20:27:49.119Z,81.46
2022-11-14T20:30:53.370Z,80.90
2022-11-14T20:33:57.579Z,80.74
2022-11-14T20:37:11.071Z,81.28
2022-11-14T20:40:17.346Z,81.04
2022-11-14T20:43:22.250Z,81.57
2022-11-14T20:46:27.134Z,81.37
2022-11-14T20:49:31.713Z,80.98
2022-11-14T20:52:38.131Z,81.04
2022-11-14T20:55:42.920Z,80.72
2022-11-14T20:58:49.003Z,81.04
2022-11-14T21:01:54.284Z,80.45
2022-11-14T21:05:00.099Z,80.47
2022-11-14T21:08:04.482Z,80.68
2022-11-14T21:11:12.982Z,80.78
2022-11-14T21:14:17.167Z,80.60
2022-11-14T21:17:21.268Z,80.37
2022-11-14T21:20:25.699Z,80.80
2022-11-14T21:23:31.218Z,80.32
2022-11-14T21:26:39.886Z,80.18
2022-11-14T21:29:44.352Z,80.31
2022-11-14T21:32:48.794Z,80.40
2022-11-14T21:35:53.040Z,80.03
2022-11-14T21:38:57.866Z,80.84
2022-11-14T21:42:01.953Z,80.69
2022-11-14T21:45:11.308Z,80.39
2022-11-14T21:48:19.927Z,80.70
2022-11-14T21:51:28.445Z,80.62
2022-11-14T21:54:33.178Z,80.88
2022-11-14T21:57:37.737Z,80.91
2022-11-14T22:00:42.384Z,80.95
2022-11-14T22:04:05.408Z,81.05
2022-11-14T22:07:09.864Z,80.76
2022-11-14T22:10:14.534Z,81.33
2022-11-14T22:13:20.290Z,81.07
2022-11-14T22:16:25.575Z,81.13
2022-11-14T22:19:30.479Z,81.03
2022-11-14T22:22:35.092Z,81.11
2022-11-14T22:25:39.150Z,80.85
2022-11-14T22:28:43.460Z,81.00
2022-11-14T22:31:48.001Z,80.82
2022-11-14T22:34:52.962Z,81.27
2022-11-14T22:37:57.277Z,80.94
2022-11-14T22:41:03.453Z,81.64
2022-11-14T22:44:07.899Z,81.26
2022-11-14T22:47:12.326Z,81.28
2022-11-14T22:50:16.782Z,81.29
2022-11-14T22:53:21.241Z,81.19
2022-11-14T22:56:28.411Z,81.21
2022-11-14T22:59:32.687Z,81.34
2022-11-14T23:02:36.850Z,81.09
2022-11-14T23:05:41.357Z,80.77
2022-11-14T23:08:46.519Z,81.06
2022-11-14T23:11:51.247Z,80.97
2022-11-14T23:14:55.463Z,81.21
2022-11-14T23:18:00.834Z,81.59
2022-11-14T23:21:07.400Z,81.41
2022-11-14T23:24:15.309Z,81.52
2022-11-14T23:27:19.719Z,81.52
2022-11-14T23:30:24.183Z,81.50
2022-11-14T23:33:29.808Z,81.75
2022-11-14T23:36:34.481Z,81.20
2022-11-14T23:39:38.710Z,81.42
2022-11-14T23:42:42.932Z,81.42
2022-11-14T23:45:48.333Z,81.11
2022-11-14T23:48:53.477Z,81.27
2022-11-14T23:51:58.240Z,81.08
2022-11-14T23:55:02.810Z,81.05
2022-11-14T23:58:06.777Z,80.72
